KBKVKOCF

Guest
Details From KBKV - Hernando Co
To KOCF - Ocala Intl Jim Taylor Fld
Flight Number -
Tags decoded
Created
Modified
Stats Distance 46 nm / 85 km
Max Altitude 0 ft / 0 m
Waypoints 4
Social Downloads 1
Likes 0
Share VATSIM

Download

Looking for another format? Having issues loading an existing format? Contact us
Advertisement - Login to hide

Notes

Requested: KBKV NITTS V441 OCF KOCF Unmatched points: V441

Route

KBKV NITTS OCF KOCF

ID Type Via Altitude Latitude Longitude Leg Dist Tot Dist Heading (true) Name
O KBKV APT - 0 ft / 0 m 28.47313˚ -82.45457˚ - 0 nm - Hernando Co
NITTS FIX - 0 ft / 0 m 28.74151˚ -82.49392˚ 16 nm 16 nm 353° / 353° -
OCF VOR - 0 ft / 0 m 29.17747˚ -82.22633˚ 29 nm 45 nm 28° / 28° OCALA REGIONAL/JI VORTAC
O KOCF APT - 0 ft / 0 m 29.17472˚ -82.22491˚ 0 nm 46 nm 156° / 156° Ocala Intl Jim Taylor Fld

Altitude Profile

Advertisement - Login to hide

KBKV

Details ICAO KBKV
Name Hernando Co
Region United States
Timezone America/New_York (UTC-5.0)
Stats Elevation 77 ft / 23 m (AMSL)
Location 28.473132° -82.454570°
Runways 2
Magnetic Variation 5.677° W

METAR

KBKV 120753Z AUTO 00000KT 10SM CLR 04/03 A3009 RMK AO2 SLP187 T00440033

Decode

TAF

Not found

Departure Runways

ID Width Length Bearing (true) Bearing (mag) Surface Threshold Offset Overrun Length
03 150 ft / 46 m 5,029 ft / 1,533 m 25.95° 31.63° Concrete 0 ft / 0 m 0 ft / 0 m
09 150 ft / 46 m 6,990 ft / 2,131 m 89.79° 95.47° Concrete 0 ft / 0 m 0 ft / 0 m
21 150 ft / 46 m 5,029 ft / 1,533 m 205.96° 211.64° Concrete 0 ft / 0 m 0 ft / 0 m
27 150 ft / 46 m 6,990 ft / 2,131 m 269.80° 275.48° Concrete 0 ft / 0 m 0 ft / 0 m

KOCF

Details ICAO KOCF (OCF)
Name Ocala Intl Jim Taylor Fld
Region United States
Timezone America/New_York (UTC-5.0)
Stats Elevation 89 ft / 27 m (AMSL)
Location 29.174723° -82.224906°
Runways 2
Magnetic Variation 5.926° W

METAR

KOCF 120751Z AUTO 00000KT 10SM CLR 03/02 A3008 RMK AO2 SLP189 T00280022

Decode

TAF

Not found

Destination Runways

ID Width Length Bearing (true) Bearing (mag) Surface Threshold Offset Overrun Length
08 50 ft / 15 m 3,005 ft / 916 m 79.88° 85.81° Asphalt 0 ft / 0 m 0 ft / 0 m
18 150 ft / 46 m 6,931 ft / 2,113 m 179.93° 185.86° Asphalt 0 ft / 0 m 0 ft / 0 m
26 50 ft / 15 m 3,005 ft / 916 m 259.88° 265.81° Asphalt 0 ft / 0 m 0 ft / 0 m
36 150 ft / 46 m 6,931 ft / 2,113 m 359.93° 5.86° Asphalt 0 ft / 0 m 0 ft / 0 m

Approach Navaids

Runway Type Ident Frequency Range Bearing (true) Bearing (mag) Slope Elevation
36 Localiser IOCF 111.50 MHz 18 nm / 33 km 359.89° 5.81° - 90 ft / 27 m (AMSL)
36 Glidescope IOCF 111.50 MHz 10 nm / 19 km 359.93° 5.86° 3.00° 79 ft / 24 m (AMSL)